createdAt,value
2023-05-25T00:01:00.601Z,93362.19
2023-05-25T00:03:31.853Z,93359.75
2023-05-25T00:06:01.851Z,93363.25
2023-05-25T00:08:30.147Z,93364.88
2023-05-25T00:10:57.586Z,93364.44
2023-05-25T00:13:25.232Z,93362.84
2023-05-25T00:15:53.035Z,93363.31
2023-05-25T00:18:20.454Z,93363.31
2023-05-25T00:20:47.986Z,93363.69
2023-05-25T00:23:15.713Z,93362.19
2023-05-25T00:25:43.307Z,93365.31
2023-05-25T00:28:12.222Z,93372.16
2023-05-25T00:30:40.151Z,93365.50
2023-05-25T00:33:07.689Z,93372.50
2023-05-25T00:35:35.085Z,93375.16
2023-05-25T00:38:02.874Z,93374.56
2023-05-25T00:40:30.301Z,93379.88
2023-05-25T00:42:59.561Z,93381.28
2023-05-25T00:45:27.291Z,93388.16
2023-05-25T00:47:54.747Z,93392.16
2023-05-25T00:50:42.011Z,93384.44
2023-05-25T00:53:11.760Z,93380.81
2023-05-25T00:56:11.944Z,93388.19
2023-05-25T00:58:43.937Z,93383.63
2023-05-25T01:01:13.747Z,93397.03
2023-05-25T01:03:45.922Z,93383.28
2023-05-25T01:06:17.773Z,93393.91
2023-05-25T01:09:00.895Z,93392.37
2023-05-25T01:11:33.492Z,93389.03
2023-05-25T01:14:02.027Z,93400.25
2023-05-25T01:16:30.278Z,93394.19
2023-05-25T01:18:57.982Z,93397.53
2023-05-25T01:21:27.292Z,93394.78
2023-05-25T01:24:22.556Z,93395.66
2023-05-25T01:26:58.281Z,93389.94
2023-05-25T01:29:28.418Z,93392.59
2023-05-25T01:31:58.669Z,93391.38
2023-05-25T01:34:27.110Z,93395.59
2023-05-25T01:36:54.637Z,93395.19
2023-05-25T01:39:24.084Z,93397.06
2023-05-25T01:41:51.356Z,93389.12
2023-05-25T01:44:19.322Z,93389.62
2023-05-25T01:46:53.933Z,93388.81
2023-05-25T01:49:30.526Z,93385.53
2023-05-25T01:52:13.122Z,93385.00
2023-05-25T01:55:02.740Z,93387.41
2023-05-25T01:57:36.391Z,93381.34
2023-05-25T02:00:05.094Z,93388.09
2023-05-25T02:02:45.846Z,93391.31
2023-05-25T02:05:14.129Z,93388.94
2023-05-25T02:07:41.659Z,93385.56
2023-05-25T02:10:09.480Z,93392.97
2023-05-25T02:12:37.347Z,93392.44
2023-05-25T02:15:05.562Z,93396.25
2023-05-25T02:17:33.052Z,93402.69
2023-05-25T02:20:01.051Z,93396.09
2023-05-25T02:22:29.178Z,93396.22
2023-05-25T02:24:56.512Z,93396.28
2023-05-25T02:27:24.221Z,93406.00
2023-05-25T02:29:53.316Z,93406.31
2023-05-25T02:32:21.539Z,93411.00
2023-05-25T02:34:49.349Z,93408.16
2023-05-25T02:37:17.815Z,93407.03
2023-05-25T02:39:45.164Z,93408.69
2023-05-25T02:42:13.089Z,93415.59
2023-05-25T02:44:40.638Z,93416.41
2023-05-25T02:47:08.464Z,93424.34
2023-05-25T02:49:36.957Z,93423.87
2023-05-25T02:52:05.271Z,93428.25
2023-05-25T02:54:32.684Z,93424.81
2023-05-25T02:57:00.403Z,93430.72
2023-05-25T02:59:27.837Z,93433.00
2023-05-25T03:01:55.151Z,93436.41
2023-05-25T03:04:22.818Z,93441.53
2023-05-25T03:06:50.138Z,93436.03
2023-05-25T03:09:18.214Z,93438.81
2023-05-25T03:11:46.154Z,93432.88
2023-05-25T03:14:13.774Z,93437.91
2023-05-25T03:16:41.873Z,93437.06
2023-05-25T03:19:10.855Z,93436.66
2023-05-25T03:21:38.746Z,93436.97
2023-05-25T03:24:07.069Z,93444.78
2023-05-25T03:26:34.957Z,93435.97
2023-05-25T03:29:03.098Z,93443.41
2023-05-25T03:31:30.628Z,93440.25
2023-05-25T03:33:58.430Z,93441.66
2023-05-25T03:36:28.590Z,93450.00
2023-05-25T03:38:55.996Z,93442.22
2023-05-25T03:41:23.990Z,93444.03
2023-05-25T03:43:52.433Z,93447.97
2023-05-25T03:46:20.351Z,93451.19
2023-05-25T03:48:48.207Z,93452.31
2023-05-25T03:51:16.608Z,93448.09
2023-05-25T03:53:45.620Z,93449.53
2023-05-25T03:56:13.312Z,93457.69
2023-05-25T03:58:40.930Z,93462.44
2023-05-25T04:01:09.875Z,93462.47
2023-05-25T04:03:37.864Z,93461.31
2023-05-25T04:06:05.421Z,93466.03
2023-05-25T04:08:34.188Z,93470.69
2023-05-25T04:11:02.302Z,93471.75
2023-05-25T04:13:29.673Z,93474.88
2023-05-25T04:15:58.204Z,93471.44
2023-05-25T04:18:26.927Z,93478.81
2023-05-25T04:20:55.674Z,93471.34
2023-05-25T04:23:23.757Z,93474.47
2023-05-25T04:25:52.304Z,93471.13
2023-05-25T04:28:23.192Z,93468.84
2023-05-25T04:30:51.439Z,93476.94
2023-05-25T04:33:39.007Z,93487.59
2023-05-25T04:36:30.078Z,93481.50
2023-05-25T04:39:08.594Z,93486.09
2023-05-25T04:41:38.087Z,93485.56
2023-05-25T04:44:10.442Z,93479.13
2023-05-25T04:46:45.276Z,93479.00
2023-05-25T04:49:13.930Z,93469.31
2023-05-25T04:51:41.561Z,93481.22
2023-05-25T04:54:13.165Z,93482.06
2023-05-25T04:56:47.359Z,93477.44
2023-05-25T04:59:15.217Z,93474.31
2023-05-25T05:01:44.947Z,93478.66
2023-05-25T05:04:13.123Z,93468.63
2023-05-25T05:06:41.382Z,93468.53
2023-05-25T05:09:49.149Z,93466.88
2023-05-25T05:12:12.174Z,93464.69
2023-05-25T05:14:43.390Z,93469.09
2023-05-25T05:17:11.256Z,93461.56
2023-05-25T05:19:38.925Z,93462.47
2023-05-25T05:22:10.039Z,93460.47
2023-05-25T05:24:39.569Z,93457.44
2023-05-25T05:27:15.763Z,93460.66
2023-05-25T05:30:12.460Z,93460.69
2023-05-25T05:33:03.867Z,93467.72
2023-05-25T05:35:32.159Z,93456.31
2023-05-25T05:38:03.802Z,93464.06
2023-05-25T05:40:33.581Z,93460.97
2023-05-25T05:43:02.658Z,93454.50
2023-05-25T05:46:10.159Z,93460.87
2023-05-25T05:48:54.608Z,93459.75
2023-05-25T05:51:27.704Z,93447.66
2023-05-25T05:53:56.487Z,93449.28
2023-05-25T05:56:25.153Z,93454.06
2023-05-25T05:58:54.780Z,93449.84
2023-05-25T06:01:26.500Z,93457.22
2023-05-25T06:03:59.576Z,93454.56
2023-05-25T06:06:29.172Z,93455.31
2023-05-25T06:09:03.869Z,93446.00
2023-05-25T06:11:40.376Z,93448.28
2023-05-25T06:14:09.002Z,93453.50
2023-05-25T06:16:38.783Z,93450.44
2023-05-25T06:19:06.366Z,93440.88
2023-05-25T06:21:43.179Z,93444.50
2023-05-25T06:24:13.757Z,93432.63
2023-05-25T06:26:43.107Z,93434.56
2023-05-25T06:29:10.659Z,93439.03
2023-05-25T06:31:38.467Z,93446.78
2023-05-25T06:34:06.649Z,93439.25
2023-05-25T06:36:34.067Z,93438.87
2023-05-25T06:39:01.760Z,93445.16
2023-05-25T06:41:30.064Z,93438.72
2023-05-25T06:43:57.555Z,93441.19
2023-05-25T06:46:25.221Z,93444.97
2023-05-25T06:48:53.713Z,93443.53
2023-05-25T06:51:21.739Z,93433.09
2023-05-25T06:53:49.330Z,93434.59
2023-05-25T06:56:17.025Z,93432.69
2023-05-25T06:58:49.562Z,93435.03
2023-05-25T07:01:18.120Z,93433.50
2023-05-25T07:03:45.913Z,93434.75
2023-05-25T07:06:17.338Z,93435.34
2023-05-25T07:08:49.377Z,93422.00
2023-05-25T07:11:26.198Z,93412.44
2023-05-25T07:13:56.895Z,93419.28
2023-05-25T07:16:25.793Z,93417.25
2023-05-25T07:19:15.612Z,93420.81
2023-05-25T07:21:49.176Z,93415.34
2023-05-25T07:24:23.583Z,93409.13
2023-05-25T07:26:53.619Z,93411.44
2023-05-25T07:29:27.099Z,93423.78
2023-05-25T07:32:05.150Z,93423.66
2023-05-25T07:34:38.873Z,93414.13
2023-05-25T07:37:14.699Z,93418.34
2023-05-25T07:39:44.197Z,93416.28
2023-05-25T07:42:13.664Z,93424.56
2023-05-25T07:44:43.007Z,93422.94
2023-05-25T07:47:15.771Z,93419.12
2023-05-25T07:49:43.464Z,93418.41
2023-05-25T07:52:21.825Z,93424.78
2023-05-25T07:54:55.345Z,93423.16
2023-05-25T07:57:24.527Z,93418.28
2023-05-25T08:00:02.916Z,93422.13
2023-05-25T08:02:42.708Z,93442.00
2023-05-25T08:05:11.021Z,93438.34
2023-05-25T08:07:42.941Z,93446.22
2023-05-25T08:10:11.964Z,93450.72
2023-05-25T08:12:48.852Z,93449.22
2023-05-25T08:15:22.756Z,93452.41
2023-05-25T08:18:04.909Z,93462.72
2023-05-25T08:20:43.208Z,93462.22
2023-05-25T08:23:10.913Z,93459.91
2023-05-25T08:25:38.601Z,93473.22
2023-05-25T08:28:54.177Z,93482.13
2023-05-25T08:31:15.069Z,93481.56
2023-05-25T08:33:45.750Z,93480.41
2023-05-25T08:36:16.528Z,93474.78
2023-05-25T08:38:44.517Z,93478.41
2023-05-25T08:41:13.653Z,93485.63
2023-05-25T08:43:42.377Z,93490.75
2023-05-25T08:46:10.627Z,93498.59
2023-05-25T08:48:42.680Z,93505.59
2023-05-25T08:51:17.705Z,93495.53
2023-05-25T08:53:46.159Z,93504.19
2023-05-25T08:56:20.734Z,93513.41
2023-05-25T08:58:59.647Z,93515.03
2023-05-25T09:01:32.084Z,93521.59
2023-05-25T09:04:09.265Z,93527.91
2023-05-25T09:06:40.704Z,93518.53
2023-05-25T09:09:09.611Z,93527.84
2023-05-25T09:11:41.629Z,93519.06
2023-05-25T09:14:11.775Z,93523.53
2023-05-25T09:16:40.744Z,93524.84
2023-05-25T09:19:08.515Z,93524.31
2023-05-25T09:21:36.369Z,93523.06
2023-05-25T09:24:04.606Z,93527.34
2023-05-25T09:26:33.056Z,93520.19
2023-05-25T09:29:02.275Z,93516.59
2023-05-25T09:31:31.790Z,93519.38
2023-05-25T09:34:00.495Z,93513.41
2023-05-25T09:36:28.565Z,93516.75
2023-05-25T09:38:59.243Z,93516.06
2023-05-25T09:41:29.405Z,93512.91
2023-05-25T09:44:09.598Z,93502.47
2023-05-25T09:46:40.399Z,93516.28
2023-05-25T09:49:09.649Z,93511.41
2023-05-25T09:51:37.227Z,93505.38
2023-05-25T09:54:09.042Z,93505.25
2023-05-25T09:56:36.895Z,93503.97
2023-05-25T09:59:04.266Z,93514.56
2023-05-25T10:01:33.715Z,93508.00
2023-05-25T10:06:52.676Z,93510.25
2023-05-25T10:09:21.208Z,93504.72
2023-05-25T10:11:53.017Z,93501.94
2023-05-25T10:14:29.512Z,93491.63
2023-05-25T10:17:04.377Z,93490.19
2023-05-25T10:19:43.327Z,93489.81
2023-05-25T10:22:22.271Z,93479.88
2023-05-25T10:24:58.822Z,93481.78
2023-05-25T10:27:34.350Z,93483.72
2023-05-25T10:30:03.121Z,93475.09
2023-05-25T10:32:33.096Z,93475.91
2023-05-25T10:35:02.165Z,93461.59
2023-05-25T10:37:31.193Z,93471.69
2023-05-25T10:40:01.628Z,93462.84
2023-05-25T10:42:30.436Z,93467.56
2023-05-25T10:47:26.714Z,93452.97
2023-05-25T10:49:55.985Z,93448.41
2023-05-25T10:52:31.717Z,93447.00
2023-05-25T10:55:05.410Z,93441.28
2023-05-25T10:57:33.187Z,93438.16
2023-05-25T11:00:09.067Z,93432.97
2023-05-25T11:02:57.913Z,93433.16
2023-05-25T11:05:28.915Z,93422.06
2023-05-25T11:08:11.631Z,93422.31
2023-05-25T11:11:05.277Z,93423.03
2023-05-25T11:13:37.876Z,93415.22
2023-05-25T11:16:24.946Z,93420.66
2023-05-25T11:18:55.989Z,93425.28
2023-05-25T11:21:30.548Z,93421.19
2023-05-25T11:24:02.836Z,93416.78
2023-05-25T11:26:34.100Z,93407.06
2023-05-25T11:29:12.517Z,93408.63
2023-05-25T11:31:43.375Z,93404.75
2023-05-25T11:34:12.167Z,93408.09
2023-05-25T11:36:39.929Z,93403.69
2023-05-25T11:39:16.964Z,93406.56
2023-05-25T11:42:11.528Z,93404.91
2023-05-25T11:44:39.282Z,93407.34
2023-05-25T11:47:14.736Z,93414.69
2023-05-25T11:49:44.338Z,93404.72
2023-05-25T11:52:23.160Z,93407.69
2023-05-25T11:54:50.677Z,93408.78
2023-05-25T11:57:20.649Z,93402.06
2023-05-25T11:59:50.409Z,93396.50
2023-05-25T12:02:18.574Z,93392.53
2023-05-25T12:04:55.388Z,93394.28
2023-05-25T12:07:23.855Z,93400.22
2023-05-25T12:09:53.755Z,93399.19
2023-05-25T12:12:21.433Z,93394.09
2023-05-25T12:14:52.309Z,93390.16
2023-05-25T12:17:22.192Z,93387.63
2023-05-25T12:19:50.117Z,93383.81
2023-05-25T12:22:17.783Z,93376.28
2023-05-25T12:24:45.632Z,93385.22
2023-05-25T12:27:21.145Z,93382.12
2023-05-25T12:29:49.528Z,93370.72
2023-05-25T12:32:17.075Z,93371.00
2023-05-25T12:34:44.551Z,93370.87
2023-05-25T12:37:22.587Z,93366.66
2023-05-25T12:39:50.878Z,93364.19
2023-05-25T12:42:18.724Z,93356.84
2023-05-25T12:44:46.908Z,93355.72
2023-05-25T12:47:16.852Z,93350.97
2023-05-25T12:49:47.296Z,93346.41
2023-05-25T12:52:37.278Z,93348.97
2023-05-25T12:55:30.372Z,93351.47
2023-05-25T12:58:02.448Z,93340.16
2023-05-25T13:00:37.246Z,93342.34
2023-05-25T13:03:08.382Z,93336.41
2023-05-25T13:05:38.360Z,93338.56
2023-05-25T13:08:07.251Z,93328.22
2023-05-25T13:10:35.777Z,93323.34
2023-05-25T13:13:04.747Z,93321.91
2023-05-25T13:15:32.065Z,93322.56
2023-05-25T13:17:59.634Z,93321.34
2023-05-25T13:20:30.807Z,93318.75
2023-05-25T13:22:58.657Z,93320.81
2023-05-25T13:25:28.073Z,93312.75
2023-05-25T13:27:58.246Z,93318.59
2023-05-25T13:30:26.591Z,93315.56
2023-05-25T13:32:54.302Z,93315.59
2023-05-25T13:35:40.573Z,93309.66
2023-05-25T13:38:07.995Z,93315.16
2023-05-25T13:40:35.654Z,93320.69
2023-05-25T13:43:03.368Z,93308.50
2023-05-25T13:45:30.876Z,93315.13
2023-05-25T13:47:59.147Z,93308.75
2023-05-25T13:50:26.788Z,93323.97
2023-05-25T13:52:54.459Z,93319.75
2023-05-25T13:55:23.175Z,93315.41
2023-05-25T13:57:52.046Z,93326.06
2023-05-25T14:00:20.438Z,93323.03
2023-05-25T14:02:48.311Z,93317.34
2023-05-25T14:05:15.854Z,93313.66
2023-05-25T14:07:44.762Z,93318.47
2023-05-25T14:10:12.464Z,93318.47
2023-05-25T14:12:39.963Z,93327.41
2023-05-25T14:15:08.277Z,93324.91
2023-05-25T14:17:36.002Z,93328.56
2023-05-25T14:20:04.509Z,93333.81
2023-05-25T14:22:32.765Z,93333.56
2023-05-25T14:25:00.480Z,93324.69
2023-05-25T14:27:27.878Z,93332.47
2023-05-25T14:29:55.218Z,93349.06
2023-05-25T14:32:22.893Z,93354.06
2023-05-25T14:34:50.295Z,93345.34
2023-05-25T14:37:18.180Z,93352.56
2023-05-25T14:39:45.900Z,93346.72
2023-05-25T14:42:13.314Z,93345.22
2023-05-25T14:44:40.862Z,93340.06
2023-05-25T14:47:08.914Z,93348.34
2023-05-25T14:49:36.324Z,93345.16
2023-05-25T14:52:04.067Z,93348.19
2023-05-25T14:54:31.744Z,93338.19
2023-05-25T14:56:59.026Z,93351.34
2023-05-25T14:59:26.445Z,93343.19
2023-05-25T15:01:54.326Z,93342.50
2023-05-25T15:04:22.001Z,93346.75
2023-05-25T15:06:49.461Z,93343.59
2023-05-25T15:09:19.507Z,93341.97
2023-05-25T15:11:46.906Z,93327.69
2023-05-25T15:14:14.380Z,93330.53
2023-05-25T15:16:42.768Z,93325.94
2023-05-25T15:19:12.697Z,93333.03
2023-05-25T15:21:41.658Z,93330.13
2023-05-25T15:24:09.206Z,93343.56
2023-05-25T15:26:36.576Z,93340.31
2023-05-25T15:29:04.304Z,93342.56
2023-05-25T15:31:31.813Z,93345.66
2023-05-25T15:34:00.872Z,93345.84
2023-05-25T15:36:28.900Z,93340.03
2023-05-25T15:38:56.532Z,93343.16
2023-05-25T15:41:24.036Z,93346.87
2023-05-25T15:43:54.798Z,93338.63
2023-05-25T15:46:22.341Z,93328.81
2023-05-25T15:48:49.880Z,93327.03
2023-05-25T15:51:17.573Z,93329.69
2023-05-25T15:53:44.951Z,93333.81
2023-05-25T15:56:12.377Z,93330.97
2023-05-25T15:58:40.064Z,93338.03
2023-05-25T16:01:07.544Z,93334.94
2023-05-25T16:03:35.320Z,93329.84
2023-05-25T16:06:02.944Z,93332.28
2023-05-25T16:08:30.315Z,93339.50
2023-05-25T16:10:58.081Z,93339.53
2023-05-25T16:13:25.441Z,93336.75
2023-05-25T16:15:52.935Z,93349.75
2023-05-25T16:18:20.853Z,93344.94
2023-05-25T16:20:49.317Z,93351.72
2023-05-25T16:23:17.073Z,93349.41
2023-05-25T16:25:44.861Z,93343.25
2023-05-25T16:28:12.326Z,93345.16
2023-05-25T16:30:39.665Z,93341.81
2023-05-25T16:33:07.486Z,93348.28
2023-05-25T16:35:34.894Z,93343.81
2023-05-25T16:38:02.455Z,93343.44
2023-05-25T16:40:31.692Z,93340.69
2023-05-25T16:42:59.249Z,93349.94
2023-05-25T16:45:26.735Z,93351.81
2023-05-25T16:47:54.581Z,93348.16
2023-05-25T16:50:21.997Z,93357.63
2023-05-25T16:52:49.692Z,93360.56
2023-05-25T16:55:17.899Z,93350.72
2023-05-25T16:57:45.387Z,93363.72
2023-05-25T17:00:13.448Z,93362.56
2023-05-25T17:02:41.257Z,93362.72
2023-05-25T17:05:09.567Z,93361.06
2023-05-25T17:07:38.001Z,93363.34
2023-05-25T17:10:15.748Z,93371.06
2023-05-25T17:12:43.850Z,93368.34
2023-05-25T17:15:13.932Z,93378.72
2023-05-25T17:17:41.489Z,93369.06
2023-05-25T17:20:09.379Z,93379.59
2023-05-25T17:22:38.017Z,93386.66
2023-05-25T17:25:11.610Z,93380.50
2023-05-25T17:27:39.275Z,93376.56
2023-05-25T17:30:07.269Z,93384.81
2023-05-25T17:32:34.666Z,93393.84
2023-05-25T17:35:02.483Z,93400.25
2023-05-25T17:37:30.095Z,93406.22
2023-05-25T17:39:57.637Z,93412.59
2023-05-25T17:42:25.471Z,93413.75
2023-05-25T17:44:53.433Z,93428.38
2023-05-25T17:47:21.085Z,93425.97
2023-05-25T17:49:49.319Z,93432.13
2023-05-25T17:52:16.650Z,93440.22
2023-05-25T17:54:51.306Z,93432.63
2023-05-25T17:57:19.003Z,93434.69
2023-05-25T17:59:46.461Z,93433.63
2023-05-25T18:02:13.952Z,93436.50
2023-05-25T18:04:41.857Z,93439.16
2023-05-25T18:07:09.281Z,93442.78
2023-05-25T18:09:36.753Z,93431.72
2023-05-25T18:12:04.590Z,93432.25
2023-05-25T18:14:35.465Z,93432.03
2023-05-25T18:17:03.002Z,93430.72
2023-05-25T18:19:31.081Z,93446.81
2023-05-25T18:21:58.509Z,93454.19
2023-05-25T18:24:25.985Z,93455.72
2023-05-25T18:26:53.944Z,93456.13
2023-05-25T18:29:21.345Z,93462.97
2023-05-25T18:31:49.037Z,93471.59
2023-05-25T18:34:17.050Z,93475.50
2023-05-25T18:36:44.510Z,93481.50
2023-05-25T18:39:12.377Z,93487.91
2023-05-25T18:41:40.305Z,93494.25
2023-05-25T18:44:08.302Z,93495.81
2023-05-25T18:46:38.320Z,93491.50
2023-05-25T18:49:06.194Z,93492.53
2023-05-25T18:51:34.159Z,93506.03
2023-05-25T18:54:01.595Z,93510.16
2023-05-25T18:56:29.411Z,93516.19
2023-05-25T18:58:57.407Z,93519.62
2023-05-25T19:01:25.798Z,93522.59
2023-05-25T19:03:55.403Z,93520.38
2023-05-25T19:06:24.262Z,93531.78
2023-05-25T19:08:51.670Z,93530.81
2023-05-25T19:11:20.294Z,93533.22
2023-05-25T19:13:47.741Z,93539.00
2023-05-25T19:18:43.131Z,93564.62
2023-05-25T19:21:10.551Z,93558.84
2023-05-25T19:23:38.054Z,93573.72
2023-05-25T19:26:05.917Z,93578.34
2023-05-25T19:28:33.377Z,93587.34
2023-05-25T19:31:01.239Z,93589.41
2023-05-25T19:33:29.041Z,93586.53
2023-05-25T19:35:56.430Z,93586.53
2023-05-25T19:38:26.564Z,93580.47
2023-05-25T19:40:56.759Z,93582.34
2023-05-25T19:43:24.250Z,93573.63
2023-05-25T19:45:51.653Z,93568.09
2023-05-25T19:48:20.491Z,93568.87
2023-05-25T19:50:47.955Z,93587.09
2023-05-25T19:53:15.343Z,93595.56
2023-05-25T19:55:43.240Z,93577.28
2023-05-25T19:58:11.312Z,93567.84
2023-05-25T20:00:38.668Z,93563.59
2023-05-25T20:03:06.650Z,93562.56
2023-05-25T20:05:34.232Z,93551.97
2023-05-25T20:08:01.627Z,93542.22
2023-05-25T20:10:29.777Z,93535.59
2023-05-25T20:12:57.161Z,93517.91
2023-05-25T20:15:24.540Z,93504.72
2023-05-25T20:17:52.391Z,93498.41
2023-05-25T20:20:19.918Z,93487.03
2023-05-25T20:22:47.414Z,93482.28
2023-05-25T20:25:15.170Z,93483.56
2023-05-25T20:27:42.662Z,93470.38
2023-05-25T20:30:10.913Z,93467.75
2023-05-25T20:32:38.803Z,93466.16
2023-05-25T20:35:07.180Z,93463.72
2023-05-25T20:37:34.527Z,93455.88
2023-05-25T20:40:02.483Z,93452.97
2023-05-25T20:42:29.897Z,93449.28
2023-05-25T20:44:57.361Z,93451.16
2023-05-25T20:47:25.138Z,93447.66
2023-05-25T20:49:52.584Z,93452.16
2023-05-25T20:52:21.315Z,93452.69
2023-05-25T20:54:48.960Z,93452.69
2023-05-25T20:57:16.483Z,93448.75
2023-05-25T20:59:43.966Z,93448.75
2023-05-25T21:02:11.775Z,93450.09
2023-05-25T21:04:39.112Z,93460.13
2023-05-25T21:07:06.629Z,93462.47
2023-05-25T21:09:34.275Z,93469.59
2023-05-25T21:12:03.576Z,93477.00
2023-05-25T21:14:31.080Z,93489.00
2023-05-25T21:16:58.710Z,93495.16
2023-05-25T21:19:26.080Z,93487.78
2023-05-25T21:21:53.738Z,93486.75
2023-05-25T21:24:21.611Z,93488.84
2023-05-25T21:26:48.874Z,93478.28
2023-05-25T21:29:16.146Z,93468.06
2023-05-25T21:31:43.976Z,93469.06
2023-05-25T21:34:11.490Z,93468.28
2023-05-25T21:36:38.935Z,93464.06
2023-05-25T21:39:06.674Z,93473.53
2023-05-25T21:41:34.132Z,93468.81
2023-05-25T21:44:01.615Z,93466.44
2023-05-25T21:46:29.465Z,93470.66
2023-05-25T21:48:57.206Z,93471.75
2023-05-25T21:51:24.670Z,93476.47
2023-05-25T21:53:52.255Z,93478.03
2023-05-25T21:56:19.619Z,93470.09
2023-05-25T21:58:47.094Z,93468.25
2023-05-25T22:01:14.817Z,93471.16
2023-05-25T22:03:42.845Z,93467.69
2023-05-25T22:06:10.506Z,93466.66
2023-05-25T22:08:37.830Z,93463.78
2023-05-25T22:11:05.571Z,93445.06
2023-05-25T22:13:33.201Z,93452.44
2023-05-25T22:16:00.760Z,93449.81
2023-05-25T22:18:28.430Z,93453.47
2023-05-25T22:20:55.844Z,93447.91
2023-05-25T22:23:23.275Z,93442.91
2023-05-25T22:25:50.879Z,93443.97
2023-05-25T22:28:18.270Z,93435.31
2023-05-25T22:30:45.761Z,93437.16
2023-05-25T22:33:13.475Z,93432.38
2023-05-25T22:35:40.866Z,93437.06
2023-05-25T22:38:08.267Z,93436.59
2023-05-25T22:40:35.950Z,93436.59
2023-05-25T22:43:03.280Z,93434.47
2023-05-25T22:45:30.704Z,93432.81
2023-05-25T22:47:58.463Z,93434.06
2023-05-25T22:50:25.877Z,93440.34
2023-05-25T22:52:53.224Z,93432.91
2023-05-25T22:55:21.748Z,93445.50
2023-05-25T22:57:49.082Z,93441.38
2023-05-25T23:00:16.546Z,93436.88
2023-05-25T23:02:44.364Z,93438.44
2023-05-25T23:05:11.727Z,93437.13
2023-05-25T23:07:39.176Z,93434.03
2023-05-25T23:10:08.383Z,93435.84
2023-05-25T23:12:35.799Z,93443.81
2023-05-25T23:15:04.265Z,93441.66
2023-05-25T23:17:32.860Z,93447.34
2023-05-25T23:20:00.366Z,93449.50
2023-05-25T23:22:28.182Z,93447.56
2023-05-25T23:24:56.059Z,93442.84
2023-05-25T23:27:23.414Z,93442.66
2023-05-25T23:29:50.789Z,93444.03
2023-05-25T23:32:18.398Z,93444.34
2023-05-25T23:34:45.800Z,93450.00
2023-05-25T23:37:13.151Z,93445.22
2023-05-25T23:39:40.776Z,93443.94
2023-05-25T23:42:08.345Z,93452.00
2023-05-25T23:44:35.739Z,93449.38
2023-05-25T23:47:03.616Z,93440.50
2023-05-25T23:49:31.412Z,93450.00
2023-05-25T23:51:58.738Z,93456.28
2023-05-25T23:54:26.379Z,93450.19
2023-05-25T23:56:53.919Z,93451.03
2023-05-25T23:59:21.272Z,93450.16
